Time,TemperatureF,DewpointF,PressureIn,WindDirection,WindDirectionDegrees,WindSpeedMPH,WindSpeedGustMPH,Humidity,HourlyPrecipIn,Conditions,Clouds,dailyrainin,SolarRadiationWatts/m^2,SoftwareType,DateUTC
2013-03-03 00:01:00,52.0,16.0,-100.00,WSW,246,9.0,14.0,24,0.00,,,0.00,0.000000,,2013-03-03 08:01:00,
2013-03-03 00:11:00,52.0,16.0,-100.00,WSW,246,9.0,14.0,24,0.00,,,0.00,0.000000,,2013-03-03 08:11:00,
2013-03-03 00:21:00,52.0,16.0,-100.00,WSW,246,9.0,14.0,24,0.00,,,0.00,0.000000,,2013-03-03 08:21:00,
2013-03-03 00:31:00,52.0,16.0,-100.00,WSW,246,9.0,14.0,24,0.00,,,0.00,0.000000,,2013-03-03 08:31:00,
2013-03-03 00:41:00,52.0,16.0,-100.00,WSW,246,9.0,14.0,24,0.00,,,0.00,0.000000,,2013-03-03 08:41:00,
2013-03-03 01:11:00,54.0,20.0,-100.00,WSW,241,13.0,21.0,26,0.00,,,0.00,0.000000,,2013-03-03 09:11:00,
2013-03-03 01:21:00,54.0,20.0,-100.00,WSW,241,13.0,21.0,26,0.00,,,0.00,0.000000,,2013-03-03 09:21:00,
2013-03-03 01:32:00,54.0,20.0,-100.00,WSW,241,13.0,21.0,26,0.00,,,0.00,0.000000,,2013-03-03 09:32:00,
2013-03-03 01:41:00,54.0,20.0,-100.00,WSW,241,13.0,21.0,26,0.00,,,0.00,0.000000,,2013-03-03 09:41:00,
2013-03-03 02:11:00,51.0,21.0,-100.00,SW,235,5.0,20.0,30,0.00,,,0.00,0.000000,,2013-03-03 10:11:00,
2013-03-03 02:21:00,51.0,21.0,-100.00,SW,235,5.0,20.0,30,0.00,,,0.00,0.000000,,2013-03-03 10:21:00,
2013-03-03 02:31:00,51.0,21.0,-100.00,SW,235,5.0,20.0,30,0.00,,,0.00,0.000000,,2013-03-03 10:31:00,
2013-03-03 02:41:00,51.0,21.0,-100.00,SW,235,5.0,20.0,30,0.00,,,0.00,0.000000,,2013-03-03 10:41:00,
2013-03-03 03:11:00,53.0,22.0,-100.00,WNW,288,5.0,18.0,30,0.00,,,0.00,0.000000,,2013-03-03 11:11:00,
2013-03-03 03:21:00,53.0,22.0,-100.00,WNW,288,5.0,18.0,30,0.00,,,0.00,0.000000,,2013-03-03 11:21:00,
2013-03-03 03:31:00,53.0,22.0,-100.00,WNW,288,5.0,18.0,30,0.00,,,0.00,0.000000,,2013-03-03 11:31:00,
2013-03-03 03:41:00,53.0,22.0,-100.00,WNW,288,5.0,18.0,30,0.00,,,0.00,0.000000,,2013-03-03 11:41:00,
2013-03-03 04:11:00,51.0,28.0,-100.00,WNW,295,9.0,15.0,40,0.00,,,0.00,0.000000,,2013-03-03 12:11:00,
2013-03-03 04:21:00,51.0,28.0,-100.00,WNW,295,9.0,15.0,40,0.00,,,0.00,0.000000,,2013-03-03 12:21:00,
2013-03-03 04:32:00,51.0,28.0,-100.00,WNW,295,9.0,15.0,40,0.00,,,0.00,0.000000,,2013-03-03 12:32:00,
2013-03-03 04:42:00,51.0,28.0,-100.00,WNW,295,9.0,15.0,40,0.00,,,0.00,0.000000,,2013-03-03 12:42:00,
2013-03-03 05:11:00,48.0,28.0,-100.00,NNE,14,2.0,13.0,45,0.00,,,0.00,0.000000,,2013-03-03 13:11:00,
2013-03-03 05:21:00,48.0,28.0,-100.00,NNE,14,2.0,13.0,45,0.00,,,0.00,0.000000,,2013-03-03 13:21:00,
2013-03-03 05:32:00,48.0,28.0,-100.00,NNE,14,2.0,13.0,45,0.00,,,0.00,0.000000,,2013-03-03 13:32:00,
2013-03-03 05:41:00,48.0,28.0,-100.00,NNE,14,2.0,13.0,45,0.00,,,0.00,0.000000,,2013-03-03 13:41:00,
2013-03-03 06:11:00,47.0,28.0,-100.00,NNE,26,8.0,11.0,48,0.00,,,0.00,0.000000,,2013-03-03 14:11:00,
2013-03-03 06:21:00,47.0,28.0,-100.00,NNE,26,8.0,11.0,48,0.00,,,0.00,0.000000,,2013-03-03 14:21:00,
2013-03-03 06:31:00,47.0,28.0,-100.00,NNE,26,8.0,11.0,48,0.00,,,0.00,0.000000,,2013-03-03 14:31:00,
2013-03-03 06:42:00,47.0,28.0,-100.00,NNE,26,8.0,11.0,48,0.00,,,0.00,0.000000,,2013-03-03 14:42:00,
2013-03-03 07:11:00,42.0,31.0,-100.00,NE,42,5.0,10.0,65,0.00,,,0.00,0.000000,,2013-03-03 15:11:00,
2013-03-03 07:22:00,42.0,31.0,-100.00,NE,42,5.0,10.0,65,0.00,,,0.00,0.000000,,2013-03-03 15:22:00,
2013-03-03 07:32:00,42.0,31.0,-100.00,NE,42,5.0,10.0,65,0.00,,,0.00,0.000000,,2013-03-03 15:32:00,
2013-03-03 07:42:00,42.0,31.0,-100.00,NE,42,5.0,10.0,65,0.00,,,0.00,0.000000,,2013-03-03 15:42:00,
2013-03-03 08:12:00,41.0,35.0,-100.00,ENE,64,0.0,6.0,80,0.01,,,0.01,17.000000,,2013-03-03 16:12:00,
2013-03-03 08:21:00,41.0,35.0,-100.00,ENE,64,0.0,6.0,80,0.01,,,0.01,17.000000,,2013-03-03 16:21:00,
2013-03-03 08:31:00,41.0,35.0,-100.00,ENE,64,0.0,6.0,80,0.01,,,0.01,17.000000,,2013-03-03 16:31:00,
2013-03-03 08:41:00,41.0,35.0,-100.00,ENE,64,0.0,6.0,80,0.01,,,0.01,17.000000,,2013-03-03 16:41:00,
2013-03-03 09:11:00,41.0,36.0,-100.00,ENE,76,1.0,4.0,83,0.02,,,0.03,53.000000,,2013-03-03 17:11:00,
2013-03-03 09:22:00,41.0,36.0,-100.00,ENE,76,1.0,4.0,83,0.02,,,0.03,53.000000,,2013-03-03 17:22:00,
2013-03-03 09:32:00,41.0,36.0,-100.00,ENE,76,1.0,4.0,83,0.02,,,0.03,53.000000,,2013-03-03 17:32:00,
2013-03-03 09:42:00,41.0,36.0,-100.00,ENE,76,1.0,4.0,83,0.02,,,0.03,53.000000,,2013-03-03 17:42:00,
2013-03-03 10:11:00,41.0,39.0,-100.00,NNE,24,5.0,7.0,92,0.02,,,0.05,100.000000,,2013-03-03 18:11:00,
2013-03-03 10:21:00,41.0,39.0,-100.00,NNE,24,5.0,7.0,92,0.02,,,0.05,100.000000,,2013-03-03 18:21:00,
2013-03-03 10:31:00,41.0,39.0,-100.00,NNE,24,5.0,7.0,92,0.02,,,0.05,100.000000,,2013-03-03 18:31:00,
2013-03-03 10:41:00,41.0,39.0,-100.00,NNE,24,5.0,7.0,92,0.02,,,0.05,100.000000,,2013-03-03 18:41:00,
2013-03-03 11:01:00,41.0,37.0,-100.00,NE,56,5.0,9.0,86,0.03,,,0.08,137.000000,,2013-03-03 19:01:00,
2013-03-03 11:11:00,41.0,37.0,-100.00,NE,56,5.0,9.0,86,0.03,,,0.08,137.000000,,2013-03-03 19:11:00,
2013-03-03 11:21:00,41.0,37.0,-100.00,NE,56,5.0,9.0,86,0.03,,,0.08,137.000000,,2013-03-03 19:21:00,
2013-03-03 11:31:00,41.0,37.0,-100.00,NE,56,5.0,9.0,86,0.03,,,0.08,137.000000,,2013-03-03 19:31:00,
2013-03-03 11:42:00,41.0,37.0,-100.00,NE,56,5.0,9.0,86,0.03,,,0.08,137.000000,,2013-03-03 19:42:00,
2013-03-03 12:11:00,41.0,37.0,-100.00,NE,40,4.0,9.0,85,0.03,,,-99.99,147.000000,,2013-03-03 20:11:00,
2013-03-03 12:21:00,41.0,37.0,-100.00,NE,40,4.0,9.0,85,0.03,,,-99.99,147.000000,,2013-03-03 20:21:00,
2013-03-03 12:32:00,41.0,37.0,-100.00,NE,40,4.0,9.0,85,0.03,,,-99.99,147.000000,,2013-03-03 20:32:00,
2013-03-03 12:42:00,41.0,37.0,-100.00,NE,40,4.0,9.0,85,0.03,,,-99.99,147.000000,,2013-03-03 20:42:00,
2013-03-03 13:11:00,43.0,38.0,-100.00,ENE,77,1.0,7.0,83,0.04,,,0.15,187.000000,,2013-03-03 21:11:00,
2013-03-03 13:21:00,43.0,38.0,-100.00,ENE,77,1.0,7.0,83,0.04,,,0.15,187.000000,,2013-03-03 21:21:00,
2013-03-03 13:31:00,43.0,38.0,-100.00,ENE,77,1.0,7.0,83,0.04,,,0.15,187.000000,,2013-03-03 21:31:00,
2013-03-03 13:41:00,43.0,38.0,-100.00,ENE,77,1.0,7.0,83,0.04,,,0.15,187.000000,,2013-03-03 21:41:00,
2013-03-03 14:11:00,45.0,39.0,-100.00,South,179,0.0,4.0,79,0.02,,,0.17,216.000000,,2013-03-03 22:11:00,
2013-03-03 14:21:00,45.0,39.0,-100.00,South,179,0.0,4.0,79,0.02,,,0.17,216.000000,,2013-03-03 22:21:00,
2013-03-03 14:31:00,45.0,39.0,-100.00,South,179,0.0,4.0,79,0.02,,,0.17,216.000000,,2013-03-03 22:31:00,
2013-03-03 14:42:00,45.0,39.0,-100.00,South,179,0.0,4.0,79,0.02,,,0.17,216.000000,,2013-03-03 22:42:00,
2013-03-03 15:11:00,45.0,38.0,-100.00,WSW,253,0.0,4.0,77,0.01,,,0.18,216.000000,,2013-03-03 23:11:00,
2013-03-03 15:21:00,45.0,38.0,-100.00,WSW,253,0.0,4.0,77,0.01,,,0.18,216.000000,,2013-03-03 23:21:00,
2013-03-03 15:31:00,45.0,38.0,-100.00,WSW,253,0.0,4.0,77,0.01,,,0.18,216.000000,,2013-03-03 23:31:00,
2013-03-03 15:41:00,45.0,38.0,-100.00,WSW,253,0.0,4.0,77,0.01,,,0.18,216.000000,,2013-03-03 23:41:00,
2013-03-03 16:11:00,46.0,37.0,-100.00,SW,223,1.0,6.0,71,0.00,,,0.18,227.000000,,2013-03-04 00:11:00,
2013-03-03 16:21:00,46.0,37.0,-100.00,SW,223,1.0,6.0,71,0.00,,,0.18,227.000000,,2013-03-04 00:21:00,
2013-03-03 16:32:00,46.0,37.0,-100.00,SW,223,1.0,6.0,71,0.00,,,0.18,227.000000,,2013-03-04 00:32:00,
2013-03-03 16:41:00,46.0,37.0,-100.00,SW,223,1.0,6.0,71,0.00,,,0.18,227.000000,,2013-03-04 00:41:00,
2013-03-03 17:11:00,46.0,35.0,-100.00,West,271,4.0,7.0,64,0.00,,,0.18,251.000000,,2013-03-04 01:11:00,
2013-03-03 17:21:00,46.0,35.0,-100.00,West,271,4.0,7.0,64,0.00,,,0.18,251.000000,,2013-03-04 01:21:00,
2013-03-03 17:31:00,46.0,35.0,-100.00,West,271,4.0,7.0,64,0.00,,,0.18,251.000000,,2013-03-04 01:31:00,
2013-03-03 17:42:00,46.0,35.0,-100.00,West,271,4.0,7.0,64,0.00,,,0.18,251.000000,,2013-03-04 01:42:00,
2013-03-03 18:11:00,43.0,37.0,-100.00,SW,226,5.0,8.0,78,0.00,,,0.18,64.000000,,2013-03-04 02:11:00,
2013-03-03 18:22:00,43.0,37.0,-100.00,SW,226,5.0,8.0,78,0.00,,,0.18,64.000000,,2013-03-04 02:22:00,
2013-03-03 18:31:00,43.0,37.0,-100.00,SW,226,5.0,8.0,78,0.00,,,0.18,64.000000,,2013-03-04 02:31:00,
2013-03-03 18:41:00,43.0,37.0,-100.00,SW,226,5.0,8.0,78,0.00,,,0.18,64.000000,,2013-03-04 02:41:00,
2013-03-03 19:11:00,42.0,39.0,-100.00,SW,224,3.0,9.0,88,0.00,,,0.18,1.000000,,2013-03-04 03:11:00,
2013-03-03 19:21:00,42.0,39.0,-100.00,SW,224,3.0,9.0,88,0.00,,,0.18,1.000000,,2013-03-04 03:21:00,
2013-03-03 19:31:00,42.0,39.0,-100.00,SW,224,3.0,9.0,88,0.00,,,0.18,1.000000,,2013-03-04 03:31:00,
2013-03-03 19:41:00,42.0,39.0,-100.00,SW,224,3.0,9.0,88,0.00,,,0.18,1.000000,,2013-03-04 03:41:00,
2013-03-03 20:11:00,43.0,37.0,-100.00,SW,218,6.0,9.0,80,0.00,,,0.18,0.000000,,2013-03-04 04:11:00,
2013-03-03 20:22:00,43.0,37.0,-100.00,SW,218,6.0,9.0,80,0.00,,,0.18,0.000000,,2013-03-04 04:22:00,
2013-03-03 20:31:00,43.0,37.0,-100.00,SW,218,6.0,9.0,80,0.00,,,0.18,0.000000,,2013-03-04 04:31:00,
2013-03-03 20:41:00,43.0,37.0,-100.00,SW,218,6.0,9.0,80,0.00,,,0.18,0.000000,,2013-03-04 04:41:00,
2013-03-03 21:11:00,41.0,37.0,-100.00,SW,232,4.0,7.0,84,0.00,,,0.18,0.000000,,2013-03-04 05:11:00,
2013-03-03 21:22:00,41.0,37.0,-100.00,SW,232,4.0,7.0,84,0.00,,,0.18,0.000000,,2013-03-04 05:22:00,
2013-03-03 21:31:00,41.0,37.0,-100.00,SW,232,4.0,7.0,84,0.00,,,0.18,0.000000,,2013-03-04 05:31:00,
2013-03-03 21:42:00,41.0,37.0,-100.00,SW,232,4.0,7.0,84,0.00,,,0.18,0.000000,,2013-03-04 05:42:00,
2013-03-03 22:11:00,42.0,37.0,-100.00,SW,236,4.0,6.0,83,0.00,,,0.18,0.000000,,2013-03-04 06:11:00,
2013-03-03 22:21:00,42.0,37.0,-100.00,SW,236,4.0,6.0,83,0.00,,,0.18,0.000000,,2013-03-04 06:21:00,
2013-03-03 22:31:00,42.0,37.0,-100.00,SW,236,4.0,6.0,83,0.00,,,0.18,0.000000,,2013-03-04 06:31:00,
2013-03-03 22:42:00,42.0,37.0,-100.00,SW,236,4.0,6.0,83,0.00,,,0.18,0.000000,,2013-03-04 06:42:00,
2013-03-03 23:01:00,41.0,34.0,-100.00,WSW,250,6.0,8.0,77,0.00,,,0.18,0.000000,,2013-03-04 07:01:00,
2013-03-03 23:11:00,41.0,34.0,-100.00,WSW,250,6.0,8.0,77,0.00,,,0.18,0.000000,,2013-03-04 07:11:00,
2013-03-03 23:21:00,41.0,34.0,-100.00,WSW,250,6.0,8.0,77,0.00,,,0.18,0.000000,,2013-03-04 07:21:00,
2013-03-03 23:32:00,41.0,34.0,-100.00,WSW,250,6.0,8.0,77,0.00,,,0.18,0.000000,,2013-03-04 07:32:00,
2013-03-03 23:41:00,41.0,34.0,-100.00,WSW,250,6.0,8.0,77,0.00,,,0.18,0.000000,,2013-03-04 07:41:00,